Detall de PIREP

Printer-friendly versionPDF version

[2014/01/05 10:14:00]
Flight IATA:CT1004
Pilot Number:042
Company ICAO:CAT
Aircraft Type:F70/A
PAX:23
Aircraft Registration:PFJ
Departing Airport: LEGR
Destination Airport: LERS
Alternate Airport:LEPA
Online: VATSIM
Route:LEGR BLN/NO290F240 R47 YES/NO450F300 UN747 TOSTO UM445 BEGOX UN860 VLC UM985 SOPET UN608 MATEX UM182 AMPOL LERS
Flight Level:F300
No Slew and time accel
No pause
Crash detect
Detect pilot in Cockpit between each 30 and 45 minutes
10:14 Zero fuel Weight: 72667 Lbs, Fuel Weight: 22641 Lbs
10:14 VATSIM:LEGR 051000Z 00000KT 9999 FEW100 06/03 Q1028
10:14 VATSIM:LERS 051000Z 27011KT 240V320 CAVOK 11/01 Q1018
10:15 VOICE CATALONIAN/X-MAS CHARTER
10:23 Parking Brakes off
10:29 Take-off
10:29 Take off Weight: 94843 Lbs
10:29 Wind: 281º @ 000 Knots Heading: 089º
10:29 POS N37º 11´ 19´´ W003º 46´ 22´´
10:29 Gear Up: 156 Knots
10:29 Flaps:2 at 156 Knots
10:29 Flaps:1 at 167 Knots
10:29 Flaps:0 at 178 Knots
10:44 Wind:238º@013 Knots Heading: 081º Ground Speed: 356 Knots Altitude 29219 ft
10:45 TOC
10:45 Fuel Weight: 20218 Lb
10:59 Wind:244º@033 Knots Heading: 050º Ground Speed: 465 Knots Altitude 30324 ft
11:14 Wind:269º@049 Knots Heading: 009º Ground Speed: 446 Knots Altitude 30200 ft
11:14 TOD
11:14 Fuel Weight: 17734 Lb
11:29 Wind:291º@030 Knots Heading: 049º Ground Speed: 251 Knots Altitude 5984 ft
11:30 Flaps:1 at 207 Knots
11:32 Flaps:2 at 202 Knots
11:35 Gear Down: 165 Knots
11:36 Flaps:3 at 163 Knots
11:39 TouchDown:Rate -101 ft/min Speed: 140 Knots
11:39 VATSIM:LERS 051130Z 28011G22KT 210V340 9999 FEW030 12/02 Q1017
11:39 Land
11:39 Wind:313º@014 Knots
11:39 Heading: 248º
11:39 Flight Duration: 01:10
11:39 Landing Weight: 89113 Lbs
11:39 POS N41º 08´ 47´´ E001º 09´ 52´´
11:42 Parking brakes on
11:42 Block to Block Duration: 01:19
11:42 Final Fuel: 16351 Lbls
11:42 Spent Fuel: 6289 Lbls
11:42 Flight Length: 416 NM
11:42 TOD Land Length: 110 NM

Exportar CSV

Powered by Drupal - Modified by Danger4k